createdAt,value
2017-02-20T00:00:54.710Z,0
2017-02-20T00:02:03.402Z,0
2017-02-20T00:03:12.484Z,0
2017-02-20T00:04:22.336Z,0
2017-02-20T00:05:32.177Z,0
2017-02-20T00:06:41.242Z,0
2017-02-20T00:07:50.346Z,0
2017-02-20T00:08:59.807Z,0
2017-02-20T00:10:09.255Z,0
2017-02-20T00:11:18.338Z,0
2017-02-20T00:12:27.819Z,0
2017-02-20T00:13:38.027Z,0
2017-02-20T00:14:47.098Z,0
2017-02-20T00:15:56.552Z,0
2017-02-20T00:17:05.629Z,0
2017-02-20T00:18:15.072Z,0
2017-02-20T00:19:24.904Z,0
2017-02-20T00:20:33.730Z,0
2017-02-20T00:21:43.228Z,0
2017-02-20T00:22:52.690Z,0
2017-02-20T00:24:01.788Z,0
2017-02-20T00:25:11.263Z,0
2017-02-20T00:26:19.935Z,0
2017-02-20T00:27:29.009Z,0
2017-02-20T00:28:37.685Z,0
2017-02-20T00:29:46.756Z,0
2017-02-20T00:30:56.198Z,0
2017-02-20T00:32:06.417Z,0
2017-02-20T00:33:15.481Z,0
2017-02-20T00:34:24.961Z,0
2017-02-20T00:35:34.028Z,0
2017-02-20T00:36:43.088Z,0
2017-02-20T00:37:52.942Z,0
2017-02-20T00:39:02.408Z,0
2017-02-20T00:40:11.487Z,0
2017-02-20T00:41:20.963Z,0
2017-02-20T00:42:31.196Z,0
2017-02-20T00:43:41.418Z,0
2017-02-20T00:44:50.103Z,0
2017-02-20T00:45:59.172Z,0
2017-02-20T00:47:08.264Z,0
2017-02-20T00:48:17.704Z,0
2017-02-20T00:49:27.541Z,0
2017-02-20T00:50:36.616Z,0
2017-02-20T00:51:46.071Z,0
2017-02-20T00:52:55.136Z,0
2017-02-20T00:54:04.969Z,0
2017-02-20T00:55:14.415Z,0
2017-02-20T00:56:23.876Z,0
2017-02-20T00:57:32.957Z,0
2017-02-20T00:58:42.056Z,0
2017-02-20T00:59:51.129Z,0
2017-02-20T01:01:00.574Z,0
2017-02-20T01:02:10.033Z,0
2017-02-20T01:03:19.891Z,0
2017-02-20T01:04:28.596Z,0
2017-02-20T01:05:37.663Z,0
2017-02-20T01:06:47.111Z,0
2017-02-20T01:07:56.558Z,0
2017-02-20T01:09:06.400Z,0
2017-02-20T01:10:15.497Z,0
2017-02-20T01:11:24.940Z,0
2017-02-20T01:12:35.156Z,0
2017-02-20T01:13:45.372Z,0
2017-02-20T01:14:55.221Z,0
2017-02-20T01:16:04.680Z,0
2017-02-20T01:17:14.918Z,0
2017-02-20T01:18:23.630Z,0
2017-02-20T01:19:32.320Z,0
2017-02-20T01:20:42.167Z,0
2017-02-20T01:21:52.391Z,0
2017-02-20T01:23:01.831Z,0
2017-02-20T01:24:11.290Z,0
2017-02-20T01:25:20.369Z,0
2017-02-20T01:26:29.451Z,0
2017-02-20T01:27:38.951Z,0
2017-02-20T01:28:48.031Z,0
2017-02-20T01:29:57.097Z,0
2017-02-20T01:31:06.561Z,0
2017-02-20T01:32:16.008Z,0
2017-02-20T01:33:25.846Z,0
2017-02-20T01:34:35.293Z,0
2017-02-20T01:35:44.743Z,0
2017-02-20T01:36:53.814Z,0
2017-02-20T01:38:03.274Z,0
2017-02-20T01:39:12.344Z,0
2017-02-20T01:40:21.045Z,0
2017-02-20T01:41:30.131Z,0
2017-02-20T01:42:38.835Z,0
2017-02-20T01:43:47.910Z,0
2017-02-20T01:44:56.974Z,0
2017-02-20T01:46:06.048Z,0
2017-02-20T01:47:15.887Z,0
2017-02-20T01:48:25.357Z,0
2017-02-20T01:49:34.453Z,0
2017-02-20T01:50:43.133Z,0
2017-02-20T01:51:52.598Z,0
2017-02-20T01:53:01.663Z,0
2017-02-20T01:54:11.507Z,0
2017-02-20T01:55:20.608Z,0
2017-02-20T01:56:30.431Z,0
2017-02-20T01:57:39.510Z,0
2017-02-20T01:58:48.957Z,0
2017-02-20T01:59:58.037Z,0
2017-02-20T02:01:07.893Z,0
2017-02-20T02:02:16.966Z,0
2017-02-20T02:03:26.034Z,0
2017-02-20T02:04:34.721Z,0
2017-02-20T02:05:43.807Z,0
2017-02-20T02:06:53.253Z,0
2017-02-20T02:08:02.713Z,0
2017-02-20T02:09:12.159Z,0
2017-02-20T02:10:21.219Z,0
2017-02-20T02:11:29.933Z,0
2017-02-20T02:12:38.997Z,0
2017-02-20T02:13:48.068Z,0
2017-02-20T02:14:57.894Z,0
2017-02-20T02:16:06.977Z,0
2017-02-20T02:17:16.426Z,0
2017-02-20T02:18:25.142Z,0
2017-02-20T02:19:33.832Z,0
2017-02-20T02:20:42.914Z,0
2017-02-20T02:21:51.991Z,0
2017-02-20T02:23:01.820Z,0
2017-02-20T02:24:11.308Z,0
2017-02-20T02:25:21.158Z,0
2017-02-20T02:26:31.009Z,0
2017-02-20T02:27:40.469Z,0
2017-02-20T02:28:49.917Z,0
2017-02-20T02:29:59.385Z,0
2017-02-20T02:31:10.057Z,0
2017-02-20T02:32:19.901Z,0
2017-02-20T02:33:29.760Z,0
2017-02-20T02:34:39.588Z,0
2017-02-20T02:35:48.663Z,0
2017-02-20T02:36:58.122Z,0
2017-02-20T02:38:07.572Z,0
2017-02-20T02:39:17.024Z,0
2017-02-20T02:40:26.477Z,0
2017-02-20T02:41:35.554Z,0
2017-02-20T02:42:44.235Z,0
2017-02-20T02:43:54.101Z,0
2017-02-20T02:45:03.188Z,0
2017-02-20T02:46:12.659Z,0
2017-02-20T02:47:22.129Z,0
2017-02-20T02:48:31.583Z,0
2017-02-20T02:49:40.646Z,0
2017-02-20T02:50:50.089Z,0
2017-02-20T02:51:59.565Z,0
2017-02-20T02:53:09.385Z,0
2017-02-20T02:54:18.068Z,0
2017-02-20T02:55:27.508Z,0
2017-02-20T02:56:36.594Z,0
2017-02-20T02:57:46.041Z,0
2017-02-20T02:58:54.732Z,0
2017-02-20T03:00:04.589Z,0
2017-02-20T03:01:14.459Z,0
2017-02-20T03:02:23.527Z,0
2017-02-20T03:03:32.609Z,0
2017-02-20T03:04:41.286Z,0
2017-02-20T03:05:51.873Z,0
2017-02-20T03:07:00.566Z,0
2017-02-20T03:08:09.629Z,0
2017-02-20T03:09:18.719Z,0
2017-02-20T03:10:28.548Z,0
2017-02-20T03:11:38.022Z,0
2017-02-20T03:12:47.477Z,0
2017-02-20T03:13:56.173Z,0
2017-02-20T03:15:05.240Z,0
2017-02-20T03:16:14.691Z,0
2017-02-20T03:17:23.766Z,0
2017-02-20T03:18:32.837Z,0
2017-02-20T03:19:42.288Z,0
2017-02-20T03:20:51.724Z,0
2017-02-20T03:22:00.791Z,0
2017-02-20T03:23:09.860Z,0
2017-02-20T03:24:18.936Z,0
2017-02-20T03:25:27.995Z,0
2017-02-20T03:26:37.471Z,0
2017-02-20T03:27:47.325Z,0
2017-02-20T03:28:56.779Z,0
2017-02-20T03:30:05.895Z,0
2017-02-20T03:31:15.734Z,0
2017-02-20T03:32:24.801Z,0
2017-02-20T03:33:33.878Z,0
2017-02-20T03:34:43.354Z,0
2017-02-20T03:35:52.804Z,0
2017-02-20T03:37:02.251Z,0
2017-02-20T03:38:11.308Z,0
2017-02-20T03:39:20.747Z,0
2017-02-20T03:40:30.578Z,0
2017-02-20T03:41:39.637Z,0
2017-02-20T03:42:49.461Z,0
2017-02-20T03:43:58.575Z,0
2017-02-20T03:45:07.649Z,0
2017-02-20T03:46:17.117Z,0
2017-02-20T03:47:26.206Z,0
2017-02-20T03:48:35.658Z,0
2017-02-20T03:49:44.350Z,0
2017-02-20T03:50:54.205Z,0
2017-02-20T03:52:02.918Z,0
2017-02-20T03:53:12.747Z,0
2017-02-20T03:54:22.625Z,0
2017-02-20T03:55:31.701Z,0
2017-02-20T03:56:41.184Z,0
2017-02-20T03:57:50.662Z,0
2017-02-20T03:59:00.491Z,0
2017-02-20T04:00:09.575Z,0
2017-02-20T04:01:18.646Z,0
2017-02-20T04:02:27.701Z,0
2017-02-20T04:03:36.390Z,0
2017-02-20T04:04:45.463Z,0
2017-02-20T04:05:54.572Z,0
2017-02-20T04:07:04.789Z,0
2017-02-20T04:08:14.639Z,0
2017-02-20T04:09:24.078Z,0
2017-02-20T04:10:33.546Z,0
2017-02-20T04:11:43.384Z,0
2017-02-20T04:12:52.832Z,0
2017-02-20T04:14:02.669Z,0
2017-02-20T04:15:11.733Z,0
2017-02-20T04:16:21.575Z,0
2017-02-20T04:17:31.801Z,0
2017-02-20T04:18:40.503Z,0
2017-02-20T04:19:50.334Z,0
2017-02-20T04:20:59.791Z,0
2017-02-20T04:22:08.856Z,0
2017-02-20T04:23:18.305Z,0
2017-02-20T04:24:28.522Z,0
2017-02-20T04:25:37.999Z,0
2017-02-20T04:26:48.223Z,0
2017-02-20T04:27:57.300Z,0
2017-02-20T04:29:06.744Z,0
2017-02-20T04:30:15.442Z,0
2017-02-20T04:31:24.155Z,0
2017-02-20T04:32:32.832Z,0
2017-02-20T04:33:42.670Z,0
2017-02-20T04:34:52.525Z,0
2017-02-20T04:36:01.226Z,0
2017-02-20T04:37:09.948Z,0
2017-02-20T04:38:18.629Z,0
2017-02-20T04:39:27.683Z,0
2017-02-20T04:40:36.749Z,0
2017-02-20T04:41:46.602Z,0
2017-02-20T04:42:56.065Z,0
2017-02-20T04:44:05.888Z,0
2017-02-20T04:45:15.329Z,0
2017-02-20T04:46:24.402Z,0
2017-02-20T04:47:34.646Z,0
2017-02-20T04:48:44.472Z,0
2017-02-20T04:49:53.556Z,0
2017-02-20T04:51:02.996Z,0
2017-02-20T04:52:12.443Z,0
2017-02-20T04:53:21.521Z,0
2017-02-20T04:54:30.982Z,0
2017-02-20T04:55:39.695Z,0
2017-02-20T04:56:49.146Z,0
2017-02-20T04:57:58.596Z,0
2017-02-20T04:59:08.056Z,0
2017-02-20T05:00:17.128Z,0
2017-02-20T05:01:26.204Z,0
2017-02-20T05:02:35.647Z,0
2017-02-20T05:03:44.733Z,0
2017-02-20T05:04:53.438Z,0
2017-02-20T05:06:02.504Z,0
2017-02-20T05:07:11.959Z,0
2017-02-20T05:08:21.027Z,0
2017-02-20T05:09:30.096Z,0
2017-02-20T05:10:39.182Z,0
2017-02-20T05:11:48.637Z,0
2017-02-20T05:12:58.111Z,0
2017-02-20T05:14:06.798Z,0
2017-02-20T05:15:16.243Z,0
2017-02-20T05:16:24.936Z,0
2017-02-20T05:17:34.005Z,0
2017-02-20T05:18:43.452Z,0
2017-02-20T05:19:52.925Z,0
2017-02-20T05:21:02.013Z,0
2017-02-20T05:22:11.467Z,0
2017-02-20T05:23:20.529Z,0
2017-02-20T05:24:29.613Z,0
2017-02-20T05:25:39.071Z,0
2017-02-20T05:26:48.148Z,0
2017-02-20T05:27:57.624Z,0
2017-02-20T05:29:07.096Z,0
2017-02-20T05:30:16.553Z,0
2017-02-20T05:31:25.618Z,0
2017-02-20T05:32:34.701Z,0
2017-02-20T05:33:43.406Z,0
2017-02-20T05:34:52.087Z,0
2017-02-20T05:36:01.951Z,0
2017-02-20T05:37:10.636Z,0
2017-02-20T05:38:19.713Z,0
2017-02-20T05:39:28.776Z,0
2017-02-20T05:40:37.849Z,0
2017-02-20T05:41:47.668Z,0
2017-02-20T05:42:57.524Z,0
2017-02-20T05:44:06.603Z,0
2017-02-20T05:45:15.676Z,0
2017-02-20T05:46:24.736Z,0
2017-02-20T05:47:34.589Z,0
2017-02-20T05:48:43.668Z,0
2017-02-20T05:49:53.130Z,0
2017-02-20T05:51:01.832Z,0
2017-02-20T05:52:10.912Z,0
2017-02-20T05:53:20.356Z,0
2017-02-20T05:54:29.456Z,0
2017-02-20T05:55:38.553Z,0
2017-02-20T05:56:48.394Z,0
2017-02-20T05:57:57.832Z,0
2017-02-20T05:59:07.303Z,0
2017-02-20T06:00:16.756Z,0
2017-02-20T06:01:25.821Z,0
2017-02-20T06:02:35.680Z,0
2017-02-20T06:03:45.143Z,0
2017-02-20T06:04:54.216Z,0
2017-02-20T06:06:03.675Z,0
2017-02-20T06:07:12.736Z,0
2017-02-20T06:08:22.202Z,0
2017-02-20T06:09:30.901Z,0
2017-02-20T06:10:39.966Z,0
2017-02-20T06:11:49.046Z,0
2017-02-20T06:12:58.887Z,0
2017-02-20T06:14:08.778Z,0
2017-02-20T06:15:17.865Z,0
2017-02-20T06:16:26.949Z,0
2017-02-20T06:17:36.031Z,0
2017-02-20T06:18:44.729Z,0
2017-02-20T06:19:54.571Z,0
2017-02-20T06:21:03.283Z,0
2017-02-20T06:22:12.350Z,0
2017-02-20T06:23:21.419Z,0
2017-02-20T06:24:30.479Z,0
2017-02-20T06:25:39.563Z,0
2017-02-20T06:26:48.635Z,0
2017-02-20T06:27:57.331Z,0
2017-02-20T06:29:06.790Z,0
2017-02-20T06:30:15.856Z,0
2017-02-20T06:31:24.946Z,0
2017-02-20T06:32:33.640Z,0
2017-02-20T06:33:42.706Z,0
2017-02-20T06:34:51.778Z,0
2017-02-20T06:36:01.242Z,0
2017-02-20T06:37:11.484Z,0
2017-02-20T06:38:20.939Z,0
2017-02-20T06:39:30.022Z,0
2017-02-20T06:40:38.715Z,0
2017-02-20T06:41:48.183Z,0
2017-02-20T06:42:57.636Z,5
2017-02-20T06:44:07.083Z,5
2017-02-20T06:45:16.145Z,5
2017-02-20T06:46:25.599Z,5
2017-02-20T06:47:34.684Z,5
2017-02-20T06:48:44.153Z,5
2017-02-20T06:49:53.609Z,5
2017-02-20T06:51:02.697Z,10
2017-02-20T06:52:12.543Z,10
2017-02-20T06:53:21.628Z,10
2017-02-20T06:54:30.319Z,10
2017-02-20T06:55:40.151Z,15
2017-02-20T06:56:49.242Z,15
2017-02-20T06:57:58.322Z,15
2017-02-20T06:59:07.013Z,20
2017-02-20T07:00:16.852Z,20
2017-02-20T07:01:25.933Z,25
2017-02-20T07:02:35.377Z,25
2017-02-20T07:03:44.458Z,25
2017-02-20T07:04:53.902Z,20
2017-02-20T07:06:03.359Z,20
2017-02-20T07:07:13.202Z,20
2017-02-20T07:08:22.307Z,25
2017-02-20T07:09:31.391Z,25
2017-02-20T07:10:40.840Z,25
2017-02-20T07:11:51.043Z,30
2017-02-20T07:13:00.491Z,30
2017-02-20T07:14:09.579Z,35
2017-02-20T07:15:18.262Z,35
2017-02-20T07:16:28.088Z,40
2017-02-20T07:17:37.564Z,45
2017-02-20T07:18:47.400Z,45
2017-02-20T07:19:56.860Z,45
2017-02-20T07:21:05.929Z,45
2017-02-20T07:22:15.016Z,50
2017-02-20T07:23:24.496Z,45
2017-02-20T07:24:33.994Z,50
2017-02-20T07:25:43.825Z,45
2017-02-20T07:26:53.674Z,45
2017-02-20T07:28:03.144Z,50
2017-02-20T07:29:12.989Z,55
2017-02-20T07:30:22.072Z,55
2017-02-20T07:31:31.520Z,60
2017-02-20T07:32:40.594Z,60
2017-02-20T07:33:50.430Z,60
2017-02-20T07:34:59.496Z,55
2017-02-20T07:36:08.964Z,65
2017-02-20T07:37:18.424Z,70
2017-02-20T07:38:28.280Z,65
2017-02-20T07:39:37.354Z,60
2017-02-20T07:40:46.421Z,65
2017-02-20T07:41:55.914Z,55
2017-02-20T07:43:05.755Z,60
2017-02-20T07:44:15.589Z,65
2017-02-20T07:45:25.808Z,70
2017-02-20T07:46:34.883Z,80
2017-02-20T07:47:43.963Z,90
2017-02-20T07:48:53.801Z,90
2017-02-20T07:50:03.246Z,95
2017-02-20T07:51:11.970Z,95
2017-02-20T07:52:21.791Z,95
2017-02-20T07:53:30.468Z,100
2017-02-20T07:54:39.157Z,105
2017-02-20T07:55:48.221Z,100
2017-02-20T07:56:57.279Z,105
2017-02-20T07:58:07.125Z,95
2017-02-20T07:59:16.587Z,90
2017-02-20T08:00:26.842Z,80
2017-02-20T08:01:35.920Z,85
2017-02-20T08:02:45.779Z,80
2017-02-20T08:03:55.628Z,75
2017-02-20T08:05:05.104Z,75
2017-02-20T08:06:14.589Z,95
2017-02-20T08:07:23.288Z,80
2017-02-20T08:08:32.733Z,80
2017-02-20T08:09:42.184Z,80
2017-02-20T08:10:52.053Z,90
2017-02-20T08:12:01.881Z,80
2017-02-20T08:13:10.948Z,85
2017-02-20T08:14:20.059Z,85
2017-02-20T08:15:29.511Z,80
2017-02-20T08:16:38.972Z,100
2017-02-20T08:17:48.432Z,105
2017-02-20T08:18:57.505Z,95
2017-02-20T08:20:06.967Z,100
2017-02-20T08:21:16.430Z,100
2017-02-20T08:22:26.263Z,95
2017-02-20T08:23:36.480Z,90
2017-02-20T08:24:45.939Z,90
2017-02-20T08:25:55.013Z,105
2017-02-20T08:27:04.471Z,110
2017-02-20T08:28:13.922Z,105
2017-02-20T08:29:22.624Z,105
2017-02-20T08:30:32.466Z,110
2017-02-20T08:31:41.922Z,135
2017-02-20T08:32:51.750Z,130
2017-02-20T08:34:00.820Z,120
2017-02-20T08:35:10.275Z,125
2017-02-20T08:36:19.790Z,120
2017-02-20T08:37:30.415Z,115
2017-02-20T08:38:39.126Z,120
2017-02-20T08:39:47.847Z,130
2017-02-20T08:40:56.917Z,140
2017-02-20T08:42:06.384Z,155
2017-02-20T08:43:15.852Z,150
2017-02-20T08:44:25.310Z,190
2017-02-20T08:45:34.754Z,160
2017-02-20T08:46:43.447Z,145
2017-02-20T08:47:53.279Z,150
2017-02-20T08:49:02.732Z,160
2017-02-20T08:50:12.177Z,155
2017-02-20T08:51:20.873Z,165
2017-02-20T08:52:30.328Z,150
2017-02-20T08:53:39.403Z,180
2017-02-20T08:54:48.466Z,195
2017-02-20T08:55:57.543Z,200
2017-02-20T08:57:06.991Z,170
2017-02-20T08:58:16.256Z,165
2017-02-20T08:59:26.082Z,165
2017-02-20T09:00:34.846Z,160
2017-02-20T09:01:44.796Z,165
2017-02-20T09:02:53.906Z,160
2017-02-20T09:04:03.012Z,185
2017-02-20T09:05:11.987Z,170
2017-02-20T09:06:21.492Z,180
2017-02-20T09:07:31.245Z,155
2017-02-20T09:08:41.150Z,165
2017-02-20T09:09:50.768Z,155
2017-02-20T09:11:00.662Z,170
2017-02-20T09:12:11.903Z,150
2017-02-20T09:13:23.384Z,135
2017-02-20T09:14:33.004Z,130
2017-02-20T09:15:42.247Z,145
2017-02-20T09:16:51.491Z,110
2017-02-20T09:18:01.124Z,105
2017-02-20T09:19:10.399Z,105
2017-02-20T09:20:20.102Z,95
2017-02-20T09:21:29.625Z,95
2017-02-20T09:22:39.009Z,90
2017-02-20T09:23:48.530Z,85
2017-02-20T09:24:58.140Z,90
2017-02-20T09:26:07.112Z,90
2017-02-20T09:27:16.620Z,100
2017-02-20T09:28:25.925Z,105
2017-02-20T09:29:35.464Z,105
2017-02-20T09:30:44.455Z,110
2017-02-20T09:31:54.521Z,105
2017-02-20T09:33:04.672Z,105
2017-02-20T09:34:13.928Z,105
2017-02-20T09:35:24.222Z,110
2017-02-20T09:36:33.426Z,105
2017-02-20T09:37:42.569Z,125
2017-02-20T09:38:52.455Z,105
2017-02-20T09:40:01.273Z,100
2017-02-20T09:41:11.038Z,105
2017-02-20T09:42:21.069Z,115
2017-02-20T09:43:30.354Z,120
2017-02-20T09:44:39.252Z,120
2017-02-20T09:45:48.818Z,120
2017-02-20T09:46:58.222Z,125
2017-02-20T09:48:07.129Z,125
2017-02-20T09:49:16.891Z,140
2017-02-20T09:50:26.867Z,145
2017-02-20T09:51:36.354Z,135
2017-02-20T09:52:45.899Z,140
2017-02-20T09:53:55.088Z,135
2017-02-20T09:55:04.627Z,135
2017-02-20T09:56:13.386Z,145
2017-02-20T09:57:23.165Z,145
2017-02-20T09:58:32.748Z,140
2017-02-20T09:59:41.572Z,140
2017-02-20T10:00:51.155Z,135
2017-02-20T10:02:01.085Z,140
2017-02-20T10:03:10.928Z,130
2017-02-20T10:04:20.370Z,120
2017-02-20T10:05:29.829Z,110
2017-02-20T10:06:39.281Z,105
2017-02-20T10:07:48.753Z,95
2017-02-20T10:08:58.207Z,100
2017-02-20T10:10:07.321Z,95
2017-02-20T10:11:16.539Z,90
2017-02-20T10:12:25.652Z,105
2017-02-20T10:13:35.103Z,115
2017-02-20T10:14:43.809Z,115
2017-02-20T10:15:52.507Z,140
2017-02-20T10:17:01.659Z,175
2017-02-20T10:18:10.347Z,200
2017-02-20T10:19:19.230Z,230
2017-02-20T10:20:28.682Z,210
2017-02-20T10:21:37.366Z,200
2017-02-20T10:22:46.067Z,190
2017-02-20T10:23:55.139Z,175
2017-02-20T10:25:04.970Z,185
2017-02-20T10:26:14.033Z,175
2017-02-20T10:27:23.099Z,175
2017-02-20T10:28:32.179Z,185
2017-02-20T10:29:42.409Z,210
2017-02-20T10:30:51.181Z,195
2017-02-20T10:32:01.020Z,230
2017-02-20T10:33:10.100Z,235
2017-02-20T10:34:19.674Z,255
2017-02-20T10:35:28.756Z,260
2017-02-20T10:36:38.257Z,270
2017-02-20T10:37:47.331Z,270
2017-02-20T10:38:56.047Z,290
2017-02-20T10:40:05.506Z,330
2017-02-20T10:41:14.570Z,275
2017-02-20T10:42:23.440Z,240
2017-02-20T10:43:32.528Z,215
2017-02-20T10:44:42.425Z,210
2017-02-20T10:45:51.501Z,200
2017-02-20T10:47:00.964Z,205
2017-02-20T10:48:10.072Z,220
2017-02-20T10:49:18.783Z,240
2017-02-20T10:50:28.228Z,255
2017-02-20T10:51:36.923Z,265
2017-02-20T10:52:47.149Z,240
2017-02-20T10:53:56.227Z,225
2017-02-20T10:55:04.930Z,230
2017-02-20T10:56:14.400Z,235
2017-02-20T10:57:23.468Z,225
2017-02-20T10:58:33.001Z,225
2017-02-20T10:59:42.899Z,235
2017-02-20T11:00:52.732Z,230
2017-02-20T11:02:01.833Z,210
2017-02-20T11:03:10.535Z,205
2017-02-20T11:04:19.616Z,195
2017-02-20T11:05:29.118Z,190
2017-02-20T11:06:39.397Z,180
2017-02-20T11:07:48.864Z,190
2017-02-20T11:08:57.944Z,170
2017-02-20T11:10:07.823Z,180
2017-02-20T11:11:16.518Z,185
2017-02-20T11:12:26.724Z,165
2017-02-20T11:13:35.793Z,175
2017-02-20T11:14:45.257Z,170
2017-02-20T11:15:54.740Z,150
2017-02-20T11:17:04.220Z,145
2017-02-20T11:18:12.920Z,150
2017-02-20T11:19:22.449Z,140
2017-02-20T11:20:31.919Z,130
2017-02-20T11:21:41.754Z,125
2017-02-20T11:22:50.815Z,115
2017-02-20T11:24:00.255Z,115
2017-02-20T11:25:08.938Z,120
2017-02-20T11:26:18.027Z,115
2017-02-20T11:27:27.158Z,145
2017-02-20T11:28:36.665Z,160
2017-02-20T11:29:45.365Z,170
2017-02-20T11:30:55.219Z,190
2017-02-20T11:32:03.910Z,180
2017-02-20T11:33:12.982Z,170
2017-02-20T11:34:21.680Z,180
2017-02-20T11:35:31.165Z,185
2017-02-20T11:36:40.245Z,170
2017-02-20T11:37:49.389Z,195
2017-02-20T11:38:58.842Z,195
2017-02-20T11:40:07.562Z,205
2017-02-20T11:41:16.251Z,215
2017-02-20T11:42:24.923Z,220
2017-02-20T11:43:34.017Z,210
2017-02-20T11:44:43.468Z,215
2017-02-20T11:45:52.160Z,205
2017-02-20T11:47:01.629Z,205
2017-02-20T11:48:10.712Z,190
2017-02-20T11:49:20.169Z,185
2017-02-20T11:50:30.391Z,170
2017-02-20T11:51:39.497Z,170
2017-02-20T11:52:48.190Z,175
2017-02-20T11:53:57.644Z,180
2017-02-20T11:55:07.488Z,170
2017-02-20T11:56:16.950Z,195
2017-02-20T11:57:26.405Z,195
2017-02-20T11:58:35.486Z,205
2017-02-20T11:59:44.944Z,180
2017-02-20T12:00:54.014Z,165
2017-02-20T12:02:03.503Z,165
2017-02-20T12:03:12.951Z,165
2017-02-20T12:04:21.641Z,160
2017-02-20T12:05:30.733Z,175
2017-02-20T12:06:40.194Z,190
2017-02-20T12:07:49.661Z,180
2017-02-20T12:08:59.150Z,170
2017-02-20T12:10:08.606Z,210
2017-02-20T12:11:17.685Z,195
2017-02-20T12:12:26.755Z,195
2017-02-20T12:13:35.444Z,185
2017-02-20T12:14:44.509Z,200
2017-02-20T12:15:53.978Z,205
2017-02-20T12:17:03.874Z,205
2017-02-20T12:18:12.561Z,185
2017-02-20T12:19:22.414Z,210
2017-02-20T12:20:31.491Z,195
2017-02-20T12:21:40.550Z,205
2017-02-20T12:22:50.433Z,200
2017-02-20T12:23:59.519Z,210
2017-02-20T12:25:09.347Z,220
2017-02-20T12:26:18.415Z,205
2017-02-20T12:27:27.512Z,195
2017-02-20T12:28:37.351Z,170
2017-02-20T12:29:47.178Z,175
2017-02-20T12:30:56.285Z,155
2017-02-20T12:32:05.359Z,145
2017-02-20T12:33:14.036Z,135
2017-02-20T12:34:22.796Z,150
2017-02-20T12:35:31.944Z,160
2017-02-20T12:36:41.014Z,180
2017-02-20T12:37:50.480Z,180
2017-02-20T12:38:59.546Z,225
2017-02-20T12:40:09.451Z,185
2017-02-20T12:41:18.899Z,205
2017-02-20T12:42:28.748Z,190
2017-02-20T12:43:38.583Z,215
2017-02-20T12:44:47.284Z,220
2017-02-20T12:45:56.352Z,190
2017-02-20T12:47:05.039Z,210
2017-02-20T12:48:14.126Z,180
2017-02-20T12:49:23.191Z,200
2017-02-20T12:50:32.671Z,205
2017-02-20T12:51:42.123Z,205
2017-02-20T12:52:51.219Z,220
2017-02-20T12:54:00.305Z,260
2017-02-20T12:55:09.774Z,265
2017-02-20T12:56:18.478Z,215
2017-02-20T12:57:28.321Z,230
2017-02-20T12:58:37.780Z,225
2017-02-20T12:59:46.846Z,215
2017-02-20T13:00:55.538Z,225
2017-02-20T13:02:05.384Z,215
2017-02-20T13:03:15.223Z,200
2017-02-20T13:04:24.309Z,205
2017-02-20T13:05:33.402Z,170
2017-02-20T13:06:42.109Z,165
2017-02-20T13:07:51.182Z,175
2017-02-20T13:09:00.250Z,160
2017-02-20T13:10:09.708Z,165
2017-02-20T13:11:19.581Z,180
2017-02-20T13:12:29.038Z,155
2017-02-20T13:13:38.877Z,170
2017-02-20T13:14:48.361Z,185
2017-02-20T13:15:57.823Z,185
2017-02-20T13:17:07.300Z,205
2017-02-20T13:18:16.381Z,215
2017-02-20T13:19:26.229Z,230
2017-02-20T13:20:34.970Z,270
2017-02-20T13:21:44.817Z,220
2017-02-20T13:22:54.263Z,215
2017-02-20T13:24:04.104Z,210
2017-02-20T13:25:13.175Z,180
2017-02-20T13:26:22.259Z,190
2017-02-20T13:27:30.955Z,170
2017-02-20T13:28:40.066Z,175
2017-02-20T13:29:49.131Z,180
2017-02-20T13:30:58.588Z,175
2017-02-20T13:32:07.678Z,180
2017-02-20T13:33:16.752Z,175
2017-02-20T13:34:25.832Z,205
2017-02-20T13:35:34.531Z,190
2017-02-20T13:36:43.971Z,175
2017-02-20T13:37:53.042Z,175
2017-02-20T13:39:01.741Z,160
2017-02-20T13:40:11.209Z,180
2017-02-20T13:41:20.653Z,170
2017-02-20T13:42:29.730Z,185
2017-02-20T13:43:38.795Z,205
2017-02-20T13:44:48.656Z,220
2017-02-20T13:45:58.117Z,225
2017-02-20T13:47:07.573Z,250
2017-02-20T13:48:16.669Z,220
2017-02-20T13:49:25.385Z,235
2017-02-20T13:50:34.470Z,240
2017-02-20T13:51:43.937Z,230
2017-02-20T13:52:53.403Z,240
2017-02-20T13:54:02.853Z,245
2017-02-20T13:55:13.074Z,250
2017-02-20T13:56:22.528Z,250
2017-02-20T13:57:31.984Z,230
2017-02-20T13:58:41.049Z,240
2017-02-20T13:59:50.119Z,205
2017-02-20T14:00:59.961Z,235
2017-02-20T14:02:09.421Z,205
2017-02-20T14:03:18.130Z,230
2017-02-20T14:04:27.982Z,205
2017-02-20T14:05:37.448Z,235
2017-02-20T14:06:46.129Z,195
2017-02-20T14:07:54.820Z,195
2017-02-20T14:09:03.930Z,185
2017-02-20T14:10:13.017Z,180
2017-02-20T14:11:21.707Z,160
2017-02-20T14:12:30.780Z,170
2017-02-20T14:13:39.849Z,180
2017-02-20T14:14:49.688Z,170
2017-02-20T14:15:58.749Z,160
2017-02-20T14:17:07.861Z,175
2017-02-20T14:18:17.338Z,180
2017-02-20T14:19:27.192Z,185
2017-02-20T14:20:36.255Z,205
2017-02-20T14:21:44.941Z,200
2017-02-20T14:22:54.387Z,205
2017-02-20T14:24:04.272Z,180
2017-02-20T14:25:13.722Z,185
2017-02-20T14:26:23.191Z,180
2017-02-20T14:27:32.644Z,180
2017-02-20T14:28:42.095Z,170
2017-02-20T14:29:51.548Z,160
2017-02-20T14:31:00.233Z,135
2017-02-20T14:32:09.305Z,130
2017-02-20T14:33:18.777Z,135
2017-02-20T14:34:27.849Z,140
2017-02-20T14:35:36.929Z,155
2017-02-20T14:36:46.758Z,150
2017-02-20T14:37:56.605Z,160
2017-02-20T14:39:05.701Z,145
2017-02-20T14:40:14.393Z,150
2017-02-20T14:41:24.220Z,160
2017-02-20T14:42:33.689Z,130
2017-02-20T14:43:43.135Z,155
2017-02-20T14:44:52.968Z,155
2017-02-20T14:46:02.033Z,155
2017-02-20T14:47:11.490Z,160
2017-02-20T14:48:20.941Z,160
2017-02-20T14:49:30.768Z,155
2017-02-20T14:50:39.828Z,145
2017-02-20T14:51:49.275Z,120
2017-02-20T14:52:58.351Z,135
2017-02-20T14:54:07.430Z,160
2017-02-20T14:55:16.923Z,160
2017-02-20T14:56:25.997Z,160
2017-02-20T14:57:35.498Z,190
2017-02-20T14:58:44.564Z,180
2017-02-20T14:59:54.408Z,180
2017-02-20T15:01:03.502Z,150
2017-02-20T15:02:12.204Z,165
2017-02-20T15:03:20.896Z,135
2017-02-20T15:04:30.734Z,135
2017-02-20T15:05:39.811Z,140
2017-02-20T15:06:49.260Z,125
2017-02-20T15:07:58.339Z,135
2017-02-20T15:09:07.798Z,110
2017-02-20T15:10:17.271Z,105
2017-02-20T15:11:26.727Z,105
2017-02-20T15:12:36.185Z,110
2017-02-20T15:13:44.876Z,105
2017-02-20T15:14:53.940Z,115
2017-02-20T15:16:03.405Z,105
2017-02-20T15:17:12.852Z,110
2017-02-20T15:18:22.697Z,120
2017-02-20T15:19:32.547Z,115
2017-02-20T15:20:42.381Z,100
2017-02-20T15:21:51.847Z,100
2017-02-20T15:23:01.315Z,110
2017-02-20T15:24:10.406Z,110
2017-02-20T15:25:20.259Z,115
2017-02-20T15:26:30.088Z,100
2017-02-20T15:27:39.537Z,95
2017-02-20T15:28:49.019Z,95
2017-02-20T15:29:57.698Z,90
2017-02-20T15:31:07.541Z,85
2017-02-20T15:32:16.261Z,100
2017-02-20T15:33:25.720Z,90
2017-02-20T15:34:35.541Z,90
2017-02-20T15:35:44.619Z,85
2017-02-20T15:36:54.067Z,85
2017-02-20T15:38:03.521Z,90
2017-02-20T15:39:12.992Z,85
2017-02-20T15:40:22.839Z,80
2017-02-20T15:41:31.573Z,70
2017-02-20T15:42:41.044Z,75
2017-02-20T15:43:50.535Z,75
2017-02-20T15:45:00.016Z,65
2017-02-20T15:46:09.484Z,60
2017-02-20T15:47:19.343Z,55
2017-02-20T15:48:29.166Z,50
2017-02-20T15:49:37.926Z,45
2017-02-20T15:50:46.987Z,40
2017-02-20T15:51:56.465Z,45
2017-02-20T15:53:05.930Z,45
2017-02-20T15:54:15.771Z,50
2017-02-20T15:55:24.854Z,55
2017-02-20T15:56:33.933Z,60
2017-02-20T15:57:43.452Z,55
2017-02-20T15:58:52.906Z,55
2017-02-20T16:00:02.817Z,50
2017-02-20T16:01:11.517Z,50
2017-02-20T16:02:21.386Z,50
2017-02-20T16:03:30.831Z,45
2017-02-20T16:04:39.524Z,35
2017-02-20T16:05:49.487Z,35
2017-02-20T16:06:58.949Z,35
2017-02-20T16:08:09.279Z,30
2017-02-20T16:09:19.119Z,30
2017-02-20T16:10:28.996Z,25
2017-02-20T16:11:38.829Z,25
2017-02-20T16:12:47.979Z,25
2017-02-20T16:13:57.100Z,20
2017-02-20T16:15:06.206Z,20
2017-02-20T16:16:15.655Z,20
2017-02-20T16:17:24.814Z,20
2017-02-20T16:18:34.276Z,15
2017-02-20T16:19:43.375Z,20
2017-02-20T16:20:52.082Z,20
2017-02-20T16:22:00.797Z,20
2017-02-20T16:23:09.816Z,20
2017-02-20T16:24:19.409Z,20
2017-02-20T16:25:28.586Z,20
2017-02-20T16:26:38.036Z,15
2017-02-20T16:27:46.738Z,15
2017-02-20T16:28:56.581Z,20